createdAt,value
2022-08-19T00:01:58.965Z,23.21
2022-08-19T00:04:35.873Z,23.12
2022-08-19T00:07:10.663Z,23.13
2022-08-19T00:09:44.768Z,23.10
2022-08-19T00:12:17.579Z,23.09
2022-08-19T00:14:50.349Z,23.12
2022-08-19T00:17:23.157Z,23.06
2022-08-19T00:19:55.925Z,23.04
2022-08-19T00:22:29.375Z,23.02
2022-08-19T00:25:03.619Z,22.99
2022-08-19T00:27:36.910Z,22.98
2022-08-19T00:30:11.693Z,22.98
2022-08-19T00:32:44.565Z,22.95
2022-08-19T00:35:18.409Z,22.88
2022-08-19T00:37:52.144Z,22.81
2022-08-19T00:40:26.564Z,22.77
2022-08-19T00:42:59.347Z,22.76
2022-08-19T00:45:37.117Z,22.77
2022-08-19T00:48:15.161Z,22.75
2022-08-19T00:50:51.613Z,22.73
2022-08-19T00:53:28.274Z,22.74
2022-08-19T00:56:05.193Z,22.69
2022-08-19T00:58:38.581Z,22.72
2022-08-19T01:01:12.071Z,22.78
2022-08-19T01:03:56.949Z,22.76
2022-08-19T01:06:33.495Z,22.72
2022-08-19T01:09:07.481Z,22.73
2022-08-19T01:11:45.852Z,22.73
2022-08-19T01:14:19.068Z,22.73
2022-08-19T01:16:55.397Z,22.69
2022-08-19T01:19:31.531Z,22.72
2022-08-19T01:22:28.802Z,22.74
2022-08-19T01:25:09.481Z,22.72
2022-08-19T01:27:50.480Z,22.71
2022-08-19T01:30:29.993Z,22.68
2022-08-19T01:33:06.092Z,22.64
2022-08-19T01:35:38.951Z,22.63
2022-08-19T01:38:20.841Z,22.63
2022-08-19T01:40:55.971Z,22.65
2022-08-19T01:43:28.856Z,22.63
2022-08-19T01:46:01.743Z,22.60
2022-08-19T01:48:35.472Z,22.55
2022-08-19T01:51:11.142Z,22.54
2022-08-19T01:53:44.074Z,22.53
2022-08-19T01:56:20.255Z,22.59
2022-08-19T01:58:57.793Z,22.52
2022-08-19T02:01:33.693Z,22.51
2022-08-19T02:04:06.927Z,22.53
2022-08-19T02:06:40.369Z,22.46
2022-08-19T02:09:13.054Z,22.51
2022-08-19T02:11:47.125Z,22.51
2022-08-19T02:14:19.822Z,22.50
2022-08-19T02:16:52.686Z,22.50
2022-08-19T02:19:25.236Z,22.45
2022-08-19T02:21:58.048Z,22.47
2022-08-19T02:24:30.804Z,22.46
2022-08-19T02:27:06.869Z,22.43
2022-08-19T02:29:39.639Z,22.41
2022-08-19T02:32:12.472Z,22.43
2022-08-19T02:34:45.291Z,22.47
2022-08-19T02:37:32.032Z,22.47
2022-08-19T02:40:12.422Z,22.41
2022-08-19T02:42:47.827Z,22.40
2022-08-19T02:45:21.159Z,22.42
2022-08-19T02:47:54.073Z,22.42
2022-08-19T02:50:26.706Z,22.33
2022-08-19T02:53:00.006Z,22.26
2022-08-19T02:55:32.762Z,22.26
2022-08-19T02:58:21.199Z,22.26
2022-08-19T03:00:56.228Z,22.23
2022-08-19T03:03:29.460Z,22.20
2022-08-19T03:06:07.572Z,22.23
2022-08-19T03:08:44.755Z,22.25
2022-08-19T03:11:20.082Z,22.20
2022-08-19T03:13:55.824Z,22.17
2022-08-19T03:16:41.635Z,22.21
2022-08-19T03:19:15.777Z,22.19
2022-08-19T03:21:48.568Z,22.16
2022-08-19T03:24:22.366Z,22.21
2022-08-19T03:26:58.604Z,22.20
2022-08-19T03:29:34.246Z,22.20
2022-08-19T03:32:32.422Z,22.14
2022-08-19T03:35:07.018Z,22.15
2022-08-19T03:37:39.779Z,22.17
2022-08-19T03:40:16.433Z,22.14
2022-08-19T03:42:50.258Z,22.13
2022-08-19T03:45:24.713Z,22.15
2022-08-19T03:47:57.719Z,22.14
2022-08-19T03:50:30.621Z,22.10
2022-08-19T03:53:03.375Z,22.16
2022-08-19T03:55:36.168Z,22.14
2022-08-19T03:58:09.126Z,22.15
2022-08-19T04:00:45.339Z,22.12
2022-08-19T04:03:19.643Z,22.13
2022-08-19T04:05:52.856Z,22.10
2022-08-19T04:08:26.087Z,22.10
2022-08-19T04:10:58.812Z,22.12
2022-08-19T04:13:31.558Z,22.16
2022-08-19T04:16:06.670Z,22.13
2022-08-19T04:18:41.091Z,22.17
2022-08-19T04:21:19.780Z,22.13
2022-08-19T04:23:53.379Z,22.13
2022-08-19T04:26:33.016Z,22.17
2022-08-19T04:29:12.199Z,22.20
2022-08-19T04:31:48.289Z,22.20
2022-08-19T04:34:24.310Z,22.21
2022-08-19T04:36:59.110Z,22.19
2022-08-19T04:39:50.573Z,22.25
2022-08-19T04:42:41.586Z,22.26
2022-08-19T04:45:15.809Z,22.20
2022-08-19T04:47:58.790Z,22.21
2022-08-19T04:50:45.496Z,22.17
2022-08-19T04:53:18.357Z,22.26
2022-08-19T04:55:51.040Z,22.28
2022-08-19T04:58:24.745Z,22.26
2022-08-19T05:00:57.540Z,22.23
2022-08-19T05:03:34.550Z,22.25
2022-08-19T05:06:08.384Z,22.19
2022-08-19T05:08:44.136Z,22.16
2022-08-19T05:11:25.908Z,22.22
2022-08-19T05:13:59.250Z,22.20
2022-08-19T05:16:32.062Z,22.22
2022-08-19T05:19:29.103Z,22.23
2022-08-19T05:22:23.705Z,22.19
2022-08-19T05:25:11.565Z,22.22
2022-08-19T05:27:45.575Z,22.19
2022-08-19T05:30:30.207Z,22.18
2022-08-19T05:33:12.468Z,22.20
2022-08-19T05:35:47.254Z,22.17
2022-08-19T05:38:21.131Z,22.17
2022-08-19T05:40:53.873Z,22.21
2022-08-19T05:43:26.728Z,22.24
2022-08-19T05:45:59.439Z,22.23
2022-08-19T05:48:32.519Z,22.20
2022-08-19T05:51:09.144Z,22.21
2022-08-19T05:53:42.087Z,22.25
2022-08-19T05:56:16.955Z,22.25
2022-08-19T05:58:49.820Z,22.29
2022-08-19T06:01:22.994Z,22.36
2022-08-19T06:03:56.251Z,22.29
2022-08-19T06:06:30.555Z,22.33
2022-08-19T06:09:03.492Z,22.39
2022-08-19T06:11:37.470Z,22.39
2022-08-19T06:14:16.462Z,22.42
2022-08-19T06:16:49.537Z,22.43
2022-08-19T06:19:25.192Z,22.42
2022-08-19T06:22:01.579Z,22.44
2022-08-19T06:24:36.141Z,22.53
2022-08-19T06:27:08.970Z,22.53
2022-08-19T06:29:41.725Z,22.60
2022-08-19T06:32:17.925Z,22.60
2022-08-19T06:34:50.622Z,22.60
2022-08-19T06:37:24.677Z,22.61
2022-08-19T06:39:57.517Z,22.65
2022-08-19T06:42:30.379Z,22.66
2022-08-19T06:45:09.448Z,22.68
2022-08-19T06:47:49.193Z,22.71
2022-08-19T06:50:22.937Z,22.72
2022-08-19T06:53:03.587Z,22.73
2022-08-19T06:55:38.504Z,22.81
2022-08-19T06:58:11.220Z,22.86
2022-08-19T07:00:43.952Z,22.87
2022-08-19T07:03:17.874Z,22.90
2022-08-19T07:05:50.777Z,22.91
2022-08-19T07:08:29.203Z,22.91
2022-08-19T07:11:02.441Z,22.92
2022-08-19T07:13:44.274Z,22.93
2022-08-19T07:16:29.378Z,22.91
2022-08-19T07:19:11.537Z,22.92
2022-08-19T07:21:53.647Z,22.94
2022-08-19T07:24:30.328Z,22.92
2022-08-19T07:27:08.509Z,22.96
2022-08-19T07:29:48.311Z,22.98
2022-08-19T07:32:32.529Z,22.94
2022-08-19T07:35:07.102Z,23.00
2022-08-19T07:37:44.976Z,23.04
2022-08-19T07:40:19.625Z,23.06
2022-08-19T07:42:52.360Z,23.10
2022-08-19T07:45:25.476Z,23.12
2022-08-19T07:47:58.650Z,23.23
2022-08-19T07:50:32.048Z,23.25
2022-08-19T07:53:04.856Z,23.23
2022-08-19T07:55:43.506Z,23.29
2022-08-19T07:58:18.942Z,23.31
2022-08-19T08:00:52.636Z,23.35
2022-08-19T08:03:46.411Z,23.42
2022-08-19T08:06:37.374Z,23.49
2022-08-19T08:09:18.467Z,23.56
2022-08-19T08:11:55.464Z,23.62
2022-08-19T08:14:35.206Z,23.65
2022-08-19T08:17:10.852Z,23.76
2022-08-19T08:19:45.261Z,23.83
2022-08-19T08:22:34.129Z,23.87
2022-08-19T08:25:09.867Z,23.94
2022-08-19T08:27:47.436Z,24.01
2022-08-19T08:30:31.287Z,24.06
2022-08-19T08:33:06.070Z,24.15
2022-08-19T08:35:39.718Z,24.17
2022-08-19T08:38:12.887Z,24.33
2022-08-19T08:40:50.795Z,24.37
2022-08-19T08:43:32.463Z,24.48
2022-08-19T08:46:08.266Z,24.49
2022-08-19T08:48:52.761Z,24.52
2022-08-19T08:51:34.469Z,24.52
2022-08-19T08:54:11.950Z,24.57
2022-08-19T08:56:46.770Z,24.50
2022-08-19T08:59:25.322Z,24.81
2022-08-19T09:01:58.172Z,24.80
2022-08-19T09:04:31.334Z,24.81
2022-08-19T09:07:34.837Z,24.94
2022-08-19T09:10:17.685Z,24.92
2022-08-19T09:12:58.890Z,24.97
2022-08-19T09:15:38.715Z,24.99
2022-08-19T09:18:15.252Z,25.08
2022-08-19T09:20:51.857Z,25.02
2022-08-19T09:23:26.826Z,25.04
2022-08-19T09:25:59.881Z,25.17
2022-08-19T09:28:32.704Z,25.39
2022-08-19T09:31:07.744Z,25.55
2022-08-19T09:33:40.787Z,25.69
2022-08-19T09:36:14.658Z,25.88
2022-08-19T09:39:14.913Z,26.02
2022-08-19T09:41:50.663Z,26.26
2022-08-19T09:44:23.391Z,26.35
2022-08-19T09:46:58.056Z,26.56
2022-08-19T09:49:30.756Z,26.67
2022-08-19T09:52:04.667Z,26.75
2022-08-19T09:54:37.351Z,26.88
2022-08-19T09:57:10.036Z,26.90
2022-08-19T09:59:43.314Z,27.05
2022-08-19T10:02:22.058Z,27.22
2022-08-19T10:05:12.713Z,27.32
2022-08-19T10:07:46.317Z,27.32
2022-08-19T10:10:19.412Z,27.42
2022-08-19T10:12:53.255Z,27.50
2022-08-19T10:15:28.949Z,27.56
2022-08-19T10:18:03.933Z,27.55
2022-08-19T10:20:38.148Z,27.61
2022-08-19T10:23:10.898Z,27.59
2022-08-19T10:25:44.011Z,27.53
2022-08-19T10:28:19.063Z,27.54
2022-08-19T10:30:52.580Z,27.63
2022-08-19T10:33:38.588Z,27.52
2022-08-19T10:36:23.467Z,27.62
2022-08-19T10:38:59.764Z,27.54
2022-08-19T10:41:34.619Z,27.59
2022-08-19T10:44:10.098Z,27.58
2022-08-19T10:46:48.943Z,27.63
2022-08-19T10:49:25.857Z,27.57
2022-08-19T10:52:19.017Z,27.60
2022-08-19T10:55:10.719Z,27.66
2022-08-19T10:58:01.847Z,27.63
2022-08-19T11:00:35.234Z,27.60
2022-08-19T11:03:10.105Z,27.67
2022-08-19T11:05:44.184Z,27.61
2022-08-19T11:08:23.516Z,27.68
2022-08-19T11:11:01.527Z,27.63
2022-08-19T11:13:38.368Z,27.72
2022-08-19T11:16:15.008Z,27.79
2022-08-19T11:18:51.148Z,27.95
2022-08-19T11:21:27.910Z,27.97
2022-08-19T11:24:02.728Z,28.04
2022-08-19T11:26:36.683Z,28.10
2022-08-19T11:29:12.418Z,28.19
2022-08-19T11:31:47.147Z,28.25
2022-08-19T11:34:22.435Z,28.27
2022-08-19T11:37:00.070Z,28.47
2022-08-19T11:39:34.447Z,28.56
2022-08-19T11:42:28.954Z,28.69
2022-08-19T11:45:01.717Z,28.75
2022-08-19T11:47:34.377Z,28.89
2022-08-19T11:50:07.884Z,28.99
2022-08-19T11:52:42.506Z,29.07
2022-08-19T11:55:16.269Z,29.20
2022-08-19T11:57:48.991Z,29.23
2022-08-19T12:00:21.612Z,29.35
2022-08-19T12:02:55.744Z,29.41
2022-08-19T12:05:28.437Z,29.56
2022-08-19T12:08:02.386Z,29.71
2022-08-19T12:10:35.936Z,29.77
2022-08-19T12:13:08.934Z,29.78
2022-08-19T12:15:42.616Z,30.00
2022-08-19T12:18:16.587Z,30.05
2022-08-19T12:20:49.274Z,30.11
2022-08-19T12:23:23.431Z,30.18
2022-08-19T12:25:58.043Z,30.35
2022-08-19T12:28:30.955Z,30.42
2022-08-19T12:31:03.815Z,30.49
2022-08-19T12:33:36.589Z,30.74
2022-08-19T12:36:10.638Z,30.88
2022-08-19T12:38:46.333Z,30.97
2022-08-19T12:41:20.055Z,31.07
2022-08-19T12:43:52.840Z,31.18
2022-08-19T12:46:26.181Z,31.37
2022-08-19T12:48:59.062Z,31.39
2022-08-19T12:51:37.787Z,31.42
2022-08-19T12:54:12.515Z,31.64
2022-08-19T12:56:45.767Z,31.79
2022-08-19T12:59:19.680Z,31.73
2022-08-19T13:01:52.343Z,31.92
2022-08-19T13:04:25.252Z,32.01
2022-08-19T13:06:58.664Z,32.07
2022-08-19T13:09:32.833Z,32.16
2022-08-19T13:12:08.626Z,32.34
2022-08-19T13:14:42.615Z,32.48
2022-08-19T13:17:16.038Z,32.60
2022-08-19T13:19:48.801Z,32.66
2022-08-19T13:22:21.473Z,32.78
2022-08-19T13:24:55.644Z,32.61
2022-08-19T13:27:28.340Z,32.66
2022-08-19T13:30:19.000Z,32.63
2022-08-19T13:33:09.352Z,32.73
2022-08-19T13:35:44.857Z,32.64
2022-08-19T13:38:19.468Z,32.72
2022-08-19T13:40:56.213Z,32.73
2022-08-19T13:43:30.169Z,32.72
2022-08-19T13:46:11.261Z,32.85
2022-08-19T13:48:44.713Z,32.97
2022-08-19T13:51:18.306Z,33.04
2022-08-19T13:53:51.539Z,33.19
2022-08-19T13:56:26.695Z,33.30
2022-08-19T13:58:59.569Z,33.37
2022-08-19T14:01:33.552Z,33.35
2022-08-19T14:04:07.275Z,33.57
2022-08-19T14:06:40.069Z,33.63
2022-08-19T14:09:12.735Z,33.59
2022-08-19T14:11:47.599Z,33.67
2022-08-19T14:14:20.280Z,33.78
2022-08-19T14:16:53.459Z,33.79
2022-08-19T14:19:26.123Z,33.77
2022-08-19T14:22:03.186Z,33.75
2022-08-19T14:24:36.041Z,33.77
2022-08-19T14:27:10.107Z,33.77
2022-08-19T14:29:43.001Z,33.74
2022-08-19T14:32:16.669Z,33.67
2022-08-19T14:34:49.698Z,33.71
2022-08-19T14:37:22.997Z,33.55
2022-08-19T14:39:57.704Z,33.55
2022-08-19T14:42:32.270Z,33.30
2022-08-19T14:45:07.110Z,33.28
2022-08-19T14:47:40.866Z,33.14
2022-08-19T14:50:18.031Z,32.99
2022-08-19T14:52:52.737Z,32.86
2022-08-19T14:55:25.417Z,32.76
2022-08-19T14:58:01.232Z,32.67
2022-08-19T15:00:38.033Z,32.47
2022-08-19T15:03:10.826Z,32.35
2022-08-19T15:05:43.508Z,32.27
2022-08-19T15:08:16.418Z,32.16
2022-08-19T15:10:49.681Z,31.96
2022-08-19T15:13:23.907Z,31.86
2022-08-19T15:15:58.012Z,31.64
2022-08-19T15:18:30.671Z,31.57
2022-08-19T15:21:04.517Z,31.41
2022-08-19T15:23:38.022Z,31.33
2022-08-19T15:26:14.248Z,31.25
2022-08-19T15:28:50.755Z,31.15
2022-08-19T15:31:28.310Z,31.11
2022-08-19T15:34:01.613Z,31.03
2022-08-19T15:36:36.019Z,30.94
2022-08-19T15:39:10.181Z,30.85
2022-08-19T15:41:44.009Z,30.81
2022-08-19T15:44:22.618Z,30.75
2022-08-19T15:46:55.412Z,30.70
2022-08-19T15:49:28.138Z,30.56
2022-08-19T15:52:01.557Z,30.59
2022-08-19T15:54:34.615Z,30.52
2022-08-19T15:57:25.023Z,30.51
2022-08-19T16:00:16.486Z,30.46
2022-08-19T16:03:07.178Z,30.43
2022-08-19T16:06:12.615Z,30.34
2022-08-19T16:08:49.276Z,30.34
2022-08-19T16:11:29.315Z,30.28
2022-08-19T16:14:03.610Z,30.23
2022-08-19T16:16:39.260Z,30.19
2022-08-19T16:19:12.642Z,30.09
2022-08-19T16:21:47.021Z,30.04
2022-08-19T16:24:25.609Z,29.94
2022-08-19T16:26:58.577Z,29.86
2022-08-19T16:29:34.074Z,29.81
2022-08-19T16:32:13.078Z,29.72
2022-08-19T16:34:45.987Z,29.67
2022-08-19T16:37:21.327Z,29.65
2022-08-19T16:39:55.347Z,29.61
2022-08-19T16:42:28.236Z,29.53
2022-08-19T16:45:01.003Z,29.51
2022-08-19T16:47:35.606Z,29.54
2022-08-19T16:50:08.875Z,29.44
2022-08-19T16:52:41.597Z,29.42
2022-08-19T16:55:14.292Z,29.36
2022-08-19T16:57:46.930Z,29.24
2022-08-19T17:00:21.207Z,29.26
2022-08-19T17:02:56.982Z,29.16
2022-08-19T17:05:29.678Z,29.07
2022-08-19T17:08:02.428Z,29.05
2022-08-19T17:10:35.403Z,29.02
2022-08-19T17:13:08.535Z,28.98
2022-08-19T17:15:41.419Z,28.97
2022-08-19T17:18:16.022Z,28.88
2022-08-19T17:20:48.717Z,28.82
2022-08-19T17:23:22.031Z,28.80
2022-08-19T17:26:18.539Z,28.73
2022-08-19T17:28:53.676Z,28.72
2022-08-19T17:31:29.985Z,28.62
2022-08-19T17:34:04.561Z,28.55
2022-08-19T17:36:38.105Z,28.54
2022-08-19T17:39:11.036Z,28.44
2022-08-19T17:41:44.112Z,28.39
2022-08-19T17:44:17.449Z,28.40
2022-08-19T17:46:50.113Z,28.34
2022-08-19T17:49:24.209Z,28.28
2022-08-19T17:51:59.384Z,28.24
2022-08-19T17:54:33.956Z,28.25
2022-08-19T17:57:06.903Z,28.19
2022-08-19T17:59:39.492Z,28.17
2022-08-19T18:02:13.053Z,28.13
2022-08-19T18:04:48.922Z,28.10
2022-08-19T18:07:22.270Z,28.04
2022-08-19T18:09:55.162Z,28.01
2022-08-19T18:12:28.469Z,27.94
2022-08-19T18:15:02.027Z,27.88
2022-08-19T18:17:36.905Z,27.88
2022-08-19T18:20:18.567Z,27.84
2022-08-19T18:22:52.069Z,27.82
2022-08-19T18:25:27.790Z,27.82
2022-08-19T18:28:01.484Z,27.78
2022-08-19T18:30:35.008Z,27.75
2022-08-19T18:33:13.649Z,27.70
2022-08-19T18:35:52.045Z,27.64
2022-08-19T18:38:42.244Z,27.61
2022-08-19T18:41:33.435Z,27.57
2022-08-19T18:44:23.888Z,27.56
2022-08-19T18:47:18.673Z,27.52
2022-08-19T18:49:51.418Z,27.50
2022-08-19T18:52:27.116Z,27.41
2022-08-19T18:54:59.892Z,27.37
2022-08-19T18:57:32.631Z,27.30
2022-08-19T19:00:07.574Z,27.29
2022-08-19T19:02:41.177Z,27.30
2022-08-19T19:05:15.650Z,27.32
2022-08-19T19:07:50.573Z,27.24
2022-08-19T19:10:23.342Z,27.25
2022-08-19T19:12:55.999Z,27.14
2022-08-19T19:15:29.361Z,27.18
2022-08-19T19:18:02.054Z,27.16
2022-08-19T19:20:35.088Z,27.13
2022-08-19T19:23:10.806Z,27.11
2022-08-19T19:25:50.235Z,27.03
2022-08-19T19:28:25.743Z,26.90
2022-08-19T19:30:58.975Z,26.96
2022-08-19T19:33:32.089Z,26.88
2022-08-19T19:36:05.658Z,26.78
2022-08-19T19:38:39.774Z,26.86
2022-08-19T19:41:13.852Z,26.83
2022-08-19T19:43:46.698Z,26.68
2022-08-19T19:46:19.220Z,26.64
2022-08-19T19:48:53.255Z,26.62
2022-08-19T19:51:28.968Z,26.57
2022-08-19T19:54:06.901Z,26.56
2022-08-19T19:56:40.281Z,26.52
2022-08-19T19:59:13.479Z,26.56
2022-08-19T20:01:47.133Z,26.56
2022-08-19T20:04:20.829Z,26.45
2022-08-19T20:06:53.560Z,26.43
2022-08-19T20:09:43.619Z,26.43
2022-08-19T20:12:19.225Z,26.36
2022-08-19T20:14:52.121Z,26.39
2022-08-19T20:17:24.729Z,26.27
2022-08-19T20:19:58.031Z,26.24
2022-08-19T20:22:33.810Z,26.15
2022-08-19T20:25:09.339Z,26.13
2022-08-19T20:27:43.344Z,26.12
2022-08-19T20:30:19.449Z,26.12
2022-08-19T20:32:52.516Z,26.04
2022-08-19T20:35:26.552Z,25.98
2022-08-19T20:37:59.705Z,26.02
2022-08-19T20:40:35.264Z,25.95
2022-08-19T20:43:10.542Z,25.99
2022-08-19T20:45:43.286Z,25.97
2022-08-19T20:48:15.978Z,25.89
2022-08-19T20:50:50.012Z,25.87
2022-08-19T20:53:24.537Z,25.86
2022-08-19T20:55:59.896Z,25.85
2022-08-19T20:58:36.310Z,25.78
2022-08-19T21:01:10.606Z,25.75
2022-08-19T21:03:43.551Z,25.75
2022-08-19T21:06:16.946Z,25.68
2022-08-19T21:08:52.208Z,25.68
2022-08-19T21:11:26.270Z,25.67
2022-08-19T21:13:59.007Z,25.64
2022-08-19T21:16:32.616Z,25.63
2022-08-19T21:19:05.628Z,25.59
2022-08-19T21:21:38.566Z,25.58
2022-08-19T21:24:11.091Z,25.57
2022-08-19T21:26:49.473Z,25.52
2022-08-19T21:29:24.261Z,25.49
2022-08-19T21:31:57.002Z,25.46
2022-08-19T21:34:30.273Z,25.44
2022-08-19T21:37:03.400Z,25.38
2022-08-19T21:39:36.261Z,25.37
2022-08-19T21:42:10.228Z,25.35
2022-08-19T21:44:45.927Z,25.34
2022-08-19T21:47:19.275Z,25.31
2022-08-19T21:49:52.077Z,25.26
2022-08-19T21:52:25.444Z,25.24
2022-08-19T21:54:58.209Z,25.23
2022-08-19T21:57:32.467Z,25.21
2022-08-19T22:00:09.491Z,25.19
2022-08-19T22:02:42.467Z,25.17
2022-08-19T22:05:15.376Z,25.13
2022-08-19T22:07:48.314Z,25.11
2022-08-19T22:10:22.192Z,25.06
2022-08-19T22:12:57.290Z,25.02
2022-08-19T22:15:29.973Z,25.01
2022-08-19T22:18:02.746Z,24.98
2022-08-19T22:20:35.597Z,24.92
2022-08-19T22:23:08.335Z,24.90
2022-08-19T22:25:44.706Z,24.90
2022-08-19T22:28:27.993Z,24.86
2022-08-19T22:31:02.412Z,24.84
2022-08-19T22:33:37.387Z,24.81
2022-08-19T22:36:10.663Z,24.73
2022-08-19T22:38:44.170Z,24.70
2022-08-19T22:41:17.258Z,24.69
2022-08-19T22:43:51.657Z,24.66
2022-08-19T22:46:24.986Z,24.66
2022-08-19T22:49:01.381Z,24.65
2022-08-19T22:51:52.043Z,24.61
2022-08-19T22:54:24.850Z,24.58
2022-08-19T22:56:57.438Z,24.58
2022-08-19T22:59:31.534Z,24.58
2022-08-19T23:02:04.682Z,24.58
2022-08-19T23:04:37.573Z,24.55
2022-08-19T23:07:10.293Z,24.52
2022-08-19T23:09:43.954Z,24.51
2022-08-19T23:12:26.472Z,24.37
2022-08-19T23:15:05.815Z,24.34
2022-08-19T23:17:40.541Z,24.28
2022-08-19T23:20:15.791Z,24.26
2022-08-19T23:22:49.808Z,24.24
2022-08-19T23:25:26.573Z,24.23
2022-08-19T23:28:17.045Z,24.16
2022-08-19T23:30:53.142Z,24.10
2022-08-19T23:33:50.799Z,24.06
2022-08-19T23:36:22.512Z,24.05
2022-08-19T23:38:55.357Z,23.89
2022-08-19T23:41:28.887Z,23.96
2022-08-19T23:44:01.587Z,23.94
2022-08-19T23:46:54.265Z,23.86
2022-08-19T23:49:28.552Z,23.94
2022-08-19T23:52:01.233Z,23.93
2022-08-19T23:54:42.997Z,23.87
2022-08-19T23:57:16.661Z,23.92
2022-08-19T23:59:49.716Z,23.93
